Anderson, Texas
Current Conditions -  °F | °C
As of 9:17 PM on Friday 21 Nov 2014 (Local Time) from KCLL Reporting Station
Overcast Overcast  
Wind Chill: 64°   Ceiling: 900
Heat Index: 64°   Visibility: 10mi
Dew Point: 62°   Wind: 13mph
Humidity: 93%   Direction: 120°ESE
Pressure: 30.12"   Gusts: NA
Location:  30.49°N, 95.99°W
Report Text: KCLL 220317Z AUTO 12011KT 10SM BKN009 OVC036 18/17 A3012 RMK AO2 CIG 008V014 T01780167
Loading
Personal Weather Stations






























Interactive Weather Map New forecast layout! Learn more

10-Day Weather Forecast

Advertisements
Track Severe Weather on mobile